createdAt,value
2022-09-12T00:19:42.823Z,13.56
2022-09-12T00:39:42.863Z,13.18
2022-09-12T00:59:42.822Z,12.45
2022-09-12T01:19:42.665Z,12.18
2022-09-12T01:39:42.657Z,12.05
2022-09-12T01:59:42.584Z,11.86
2022-09-12T02:19:42.531Z,11.48
2022-09-12T02:39:45.251Z,11.12
2022-09-12T02:59:42.461Z,10.99
2022-09-12T03:19:42.451Z,11
2022-09-12T03:39:42.432Z,10.57
2022-09-12T03:59:42.362Z,10.47
2022-09-12T04:19:42.303Z,10.2
2022-09-12T04:39:42.378Z,10.25
2022-09-12T04:59:42.204Z,10.34
2022-09-12T05:19:42.174Z,10.26
2022-09-12T05:39:42.215Z,11.71
2022-09-12T05:59:42.127Z,15.78
2022-09-12T06:19:42.031Z,18.04
2022-09-12T06:39:42.029Z,20.05
2022-09-12T06:59:41.971Z,18.16
2022-09-12T07:19:41.967Z,19.75
2022-09-12T07:39:41.884Z,21.51
2022-09-12T08:19:41.757Z,21.91
2022-09-12T08:39:41.733Z,22.48
2022-09-12T08:59:41.662Z,23.39
2022-09-12T09:19:41.666Z,22.55
2022-09-12T09:39:41.587Z,23.72
2022-09-12T10:59:41.431Z,20.72
2022-09-12T11:19:41.316Z,21.08
2022-09-12T11:39:41.328Z,21.2
2022-09-12T11:59:48.310Z,22.4
2022-09-12T12:19:41.148Z,22.68
2022-09-12T12:39:41.128Z,22.32
2022-09-12T13:19:40.993Z,22.54
2022-09-12T13:59:40.918Z,22.1
2022-09-12T14:39:40.834Z,21.82
2022-09-12T14:59:40.751Z,21.55
2022-09-12T15:19:40.722Z,21.02
2022-09-12T15:59:40.697Z,20.17
2022-09-12T16:19:40.621Z,19.78
2022-09-12T16:39:40.592Z,19.24
2022-09-12T16:59:40.494Z,18.77
2022-09-12T17:19:40.367Z,18.11
2022-09-12T17:59:40.270Z,16.72
2022-09-12T18:19:50.326Z,16.18
2022-09-12T18:39:40.338Z,15.58
2022-09-12T18:59:40.157Z,15
2022-09-12T19:19:40.716Z,14.48
2022-09-12T19:39:40.255Z,13.85
2022-09-12T19:59:40.066Z,13.57
2022-09-12T20:19:40.015Z,13.46
2022-09-12T20:39:40.027Z,13.36
2022-09-12T20:59:39.954Z,13.11
2022-09-12T21:19:39.892Z,12.94
2022-09-12T21:39:39.869Z,12.99
2022-09-12T21:59:39.749Z,12.89
2022-09-12T22:19:39.796Z,12.51
2022-09-12T22:39:39.936Z,12.26
2022-09-12T22:59:39.724Z,12.23
2022-09-12T23:19:39.678Z,11.96
2022-09-12T23:39:39.702Z,11.98
2022-09-12T23:59:39.511Z,11.71
